Date,TemperatureHighF,TemperatureAvgF,TemperatureLowF,DewpointHighF,DewpointAvgF,DewpointLowF,HumidityHigh,HumidityAvg,HumidityLow,PressureMaxIn,PressureMinIn,WindSpeedMaxMPH,WindSpeedAvgMPH,GustSpeedMaxMPH,PrecipitationSumIn
2013-3-1,25,22,16,24,20,14,95,94,92,30.31,30.14,18,7,27,0.00
2013-3-2,26,24,20,25,23,19,96,95,94,30.14,29.68,12,4,23,0.00
2013-3-3,20,11,5,19,10,3,94,91,89,30.33,29.57,16,3,21,0.01
2013-3-4,15,7,3,13,5,1,91,90,89,30.45,30.33,0,0,0,0.00
2013-3-5,14,7,3,12,5,0,91,90,88,30.34,30.16,0,0,1,0.00
2013-3-6,19,14,8,17,13,6,93,92,90,30.16,29.84,2,0,10,0.00
2013-3-7,18,15,12,16,13,10,93,92,91,30.10,29.86,10,2,13,0.00
2013-3-8,17,14,11,16,12,9,93,92,91,30.16,30.03,17,4,18,0.00
2013-3-9,20,15,10,18,12,8,93,89,70,30.44,30.14,32,15,32,0.01
2013-3-10,20,16,12,18,13,10,92,86,70,30.41,30.08,40,16,40,0.00
2013-3-11,13,9,6,10,3,-1,90,76,64,30.39,30.12,30,15,33,0.00
2013-3-12,22,13,7,20,9,-1,94,85,69,30.36,30.09,19,7,28,0.00
2013-3-13,26,24,22,25,23,20,95,95,94,30.09,29.97,23,9,35,0.01
2013-3-14,28,27,25,27,26,24,96,96,95,30.04,29.77,16,5,23,0.02
2013-3-15,26,22,18,25,21,17,96,95,93,30.02,29.74,24,9,32,0.00
2013-3-16,22,18,15,20,17,14,94,93,93,30.00,29.55,17,6,21,0.00
2013-3-17,15,9,4,14,6,2,93,91,89,29.94,29.47,19,6,27,0.01
2013-3-18,10,6,3,8,3,1,90,89,89,30.18,29.88,21,7,29,0.00
2013-3-19,14,7,2,12,4,0,92,90,89,30.42,30.10,22,10,24,0.00
2013-3-20,23,18,11,22,16,9,95,93,90,30.09,29.47,25,8,27,0.00
2013-3-21,18,12,4,16,10,1,94,92,89,29.98,29.48,28,10,37,0.00
2013-3-22,10,4,2,8,1,-1,90,89,88,30.42,29.98,17,5,20,0.00
2013-3-23,10,4,1,7,1,-2,89,88,87,30.50,30.42,19,8,26,0.00
2013-3-24,12,6,1,8,2,-2,88,86,77,30.51,30.42,24,13,30,0.00
2013-3-25,19,12,7,9,5,1,77,73,65,30.43,30.20,20,13,26,0.00
2013-3-26,23,17,12,16,11,8,86,78,68,30.19,30.11,22,12,27,0.02
2013-3-27,28,21,16,20,15,12,86,75,63,30.13,30.07,20,10,25,0.12
2013-3-28,27,23,21,16,14,11,74,68,61,30.13,30.08,18,11,26,0.00
2013-3-29,27,23,20,21,17,11,91,77,63,30.25,30.12,21,12,30,0.00
2013-3-30,29,25,21,21,18,17,93,77,65,30.28,30.16,36,17,40,0.00
2013-3-31,33,29,25,23,19,14,79,67,50,30.18,30.06,26,14,34,0.01